Time;durP1;ratioP1;P1;durP2;ratioP2;P2;SDS_P1;SDS_P2;PMS_P1;PMS_P2;Temp;Humidity;BMP_temperature;BMP_pressure;BME280_temperature;BME280_humidity;BME280_pressure;Samples;Min_cycle;Max_cycle;Signal;HPM_P1;HPM_P2
2023/09/23 00:00:51;;;;;;;1.17;0.75;;;;;;;;;;5135245;28;20213;-65
2023/09/23 00:03:19;;;;;;;0.73;0.73;;;;;;;;;;5134929;28;20248;-65
2023/09/23 00:05:47;;;;;;;0.65;0.65;;;;;;;;;;5128744;27;20556;-67
2023/09/23 00:08:18;;;;;;;1.00;0.70;;;;;;;;;;5121166;28;20203;-65
2023/09/23 00:10:46;;;;;;;0.90;0.68;;;;;;;;;;5120609;28;20470;-66
2023/09/23 00:13:15;;;;;;;1.05;0.60;;;;;;;;;;5120722;28;20214;-65
2023/09/23 00:15:43;;;;;;;0.70;0.60;;;;;;;;;;5120596;28;20223;-66
2023/09/23 00:18:16;;;;;;;1.02;0.70;;;;;;;;;;5120410;28;20203;-66
2023/09/23 00:20:43;;;;;;;1.10;0.73;;;;;;;;;;5119902;28;20211;-66
2023/09/23 00:23:11;;;;;;;0.70;0.70;;;;;;;;;;5120300;28;20266;-66
2023/09/23 00:25:39;;;;;;;0.85;0.80;;;;;;;;;;5119765;28;20285;-66
2023/09/23 00:28:11;;;;;;;0.73;0.70;;;;;;;;;;5120176;28;20293;-66
2023/09/23 00:30:40;;;;;;;0.80;0.80;;;;;;;;;;5120886;28;20213;-66
2023/09/23 00:33:09;;;;;;;1.08;0.82;;;;;;;;;;5120536;28;20203;-66
2023/09/23 00:35:37;;;;;;;0.70;0.55;;;;;;;;;;5120611;28;20235;-66
2023/09/23 00:38:06;;;;;;;1.08;0.82;;;;;;;;;;5120050;28;20207;-66
2023/09/23 00:40:35;;;;;;;0.70;0.60;;;;;;;;;;5120196;28;20549;-66
2023/09/23 00:43:06;;;;;;;0.60;0.60;;;;;;;;;;5120482;28;20203;-65
2023/09/23 00:45:35;;;;;;;0.70;0.70;;;;;;;;;;5120591;28;20199;-65
2023/09/23 00:48:08;;;;;;;0.80;0.80;;;;;;;;;;5120402;28;20203;-66
2023/09/23 00:50:36;;;;;;;0.70;0.60;;;;;;;;;;5120523;28;20203;-66
2023/09/23 00:53:04;;;;;;;0.77;0.77;;;;;;;;;;5113083;28;20214;-66
2023/09/23 00:55:40;;;;;;;1.27;0.77;;;;;;;;;;5119952;28;20315;-66
2023/09/23 00:58:08;;;;;;;0.90;0.90;;;;;;;;;;5120571;28;20217;-66
2023/09/23 01:00:43;;;;;;;1.45;0.70;;;;;;;;;;5120259;28;20575;-66
2023/09/23 01:03:13;;;;;;;0.80;0.60;;;;;;;;;;5120476;28;20232;-65
2023/09/23 01:05:40;;;;;;;1.38;0.70;;;;;;;;;;5119593;28;20227;-65
2023/09/23 01:08:18;;;;;;;0.90;0.90;;;;;;;;;;5120363;28;20257;-65
2023/09/23 01:10:46;;;;;;;0.90;0.63;;;;;;;;;;5120041;28;20209;-65
2023/09/23 01:13:14;;;;;;;0.80;0.80;;;;;;;;;;5119890;28;20203;-65
2023/09/23 01:15:42;;;;;;;1.45;0.70;;;;;;;;;;5119690;28;20234;-65
2023/09/23 01:18:18;;;;;;;0.68;0.60;;;;;;;;;;5119084;28;20222;-65
2023/09/23 01:20:50;;;;;;;0.77;0.70;;;;;;;;;;5119451;28;20297;-65
2023/09/23 01:23:20;;;;;;;1.85;0.80;;;;;;;;;;5118913;28;20222;-65
2023/09/23 01:25:47;;;;;;;0.60;0.60;;;;;;;;;;5119467;28;20199;-65
2023/09/23 01:28:15;;;;;;;0.90;0.80;;;;;;;;;;5119617;28;20237;-67
2023/09/23 01:30:45;;;;;;;0.85;0.73;;;;;;;;;;5119111;28;20205;-67
2023/09/23 01:33:14;;;;;;;1.00;0.70;;;;;;;;;;5119887;28;20211;-67
2023/09/23 01:35:41;;;;;;;0.63;0.63;;;;;;;;;;5119107;28;20226;-67
2023/09/23 01:38:09;;;;;;;0.88;0.70;;;;;;;;;;5119484;28;20306;-65
2023/09/23 01:40:40;;;;;;;0.88;0.60;;;;;;;;;;5119450;28;20229;-65
2023/09/23 01:43:09;;;;;;;0.70;0.70;;;;;;;;;;5119262;28;20195;-65
2023/09/23 01:45:38;;;;;;;0.70;0.70;;;;;;;;;;5119503;28;20238;-65
2023/09/23 01:48:06;;;;;;;1.00;0.80;;;;;;;;;;5119357;28;20527;-65
2023/09/23 01:50:34;;;;;;;1.23;0.70;;;;;;;;;;5119576;28;20264;-66
2023/09/23 01:53:01;;;;;;;1.05;0.80;;;;;;;;;;5119259;28;20207;-65
2023/09/23 01:55:29;;;;;;;1.08;0.77;;;;;;;;;;5119197;28;20285;-66
2023/09/23 01:57:59;;;;;;;0.95;0.70;;;;;;;;;;5118605;28;20470;-65
2023/09/23 02:00:28;;;;;;;1.00;0.90;;;;;;;;;;5119034;28;20210;-65
2023/09/23 02:02:57;;;;;;;0.88;0.70;;;;;;;;;;5119042;28;20245;-66
2023/09/23 02:05:27;;;;;;;0.70;0.60;;;;;;;;;;5118949;28;20230;-65
2023/09/23 02:07:54;;;;;;;0.82;0.57;;;;;;;;;;5118847;28;20253;-66
2023/09/23 02:10:24;;;;;;;0.80;0.77;;;;;;;;;;5118941;28;20203;-66
2023/09/23 02:12:52;;;;;;;1.00;0.70;;;;;;;;;;5119170;28;20252;-66
2023/09/23 02:15:21;;;;;;;0.77;0.70;;;;;;;;;;5118872;28;20234;-66
2023/09/23 02:17:49;;;;;;;0.68;0.60;;;;;;;;;;5118446;28;20206;-65
2023/09/23 02:20:18;;;;;;;0.70;0.63;;;;;;;;;;5118508;28;20285;-66
2023/09/23 02:22:47;;;;;;;0.70;0.70;;;;;;;;;;5118437;28;20238;-66
2023/09/23 02:25:16;;;;;;;1.40;0.73;;;;;;;;;;5118789;28;20199;-66
2023/09/23 02:27:45;;;;;;;0.80;0.80;;;;;;;;;;5119149;28;20545;-66
2023/09/23 02:30:13;;;;;;;0.82;0.77;;;;;;;;;;5118762;28;20203;-66
2023/09/23 02:32:42;;;;;;;0.80;0.68;;;;;;;;;;5118606;28;20269;-66
2023/09/23 02:35:11;;;;;;;0.55;0.50;;;;;;;;;;5118158;28;20315;-66
2023/09/23 02:37:39;;;;;;;0.70;0.60;;;;;;;;;;5118696;28;20224;-66
2023/09/23 02:40:11;;;;;;;1.77;0.60;;;;;;;;;;5118628;28;20268;-66
2023/09/23 02:42:40;;;;;;;0.95;0.75;;;;;;;;;;5118450;28;20556;-66
2023/09/23 02:45:10;;;;;;;0.63;0.60;;;;;;;;;;5118058;28;20199;-65
2023/09/23 02:47:37;;;;;;;0.90;0.70;;;;;;;;;;5118207;28;20267;-66
2023/09/23 02:50:09;;;;;;;1.17;0.70;;;;;;;;;;5118291;28;20230;-66
2023/09/23 02:52:39;;;;;;;1.00;0.70;;;;;;;;;;5118555;28;20213;-66
2023/09/23 02:55:10;;;;;;;0.95;0.70;;;;;;;;;;5118296;28;20226;-65
2023/09/23 02:57:38;;;;;;;1.05;0.57;;;;;;;;;;5117918;28;20264;-65
2023/09/23 03:00:16;;;;;;;0.60;0.60;;;;;;;;;;5118241;28;20267;-66
2023/09/23 03:02:48;;;;;;;1.00;0.90;;;;;;;;;;5118252;28;20259;-66
2023/09/23 03:05:17;;;;;;;0.50;0.50;;;;;;;;;;5117800;28;20219;-65
2023/09/23 03:07:48;;;;;;;0.93;0.57;;;;;;;;;;5117123;28;20302;-65
2023/09/23 03:10:19;;;;;;;1.30;0.80;;;;;;;;;;5117646;28;20493;-66
2023/09/23 03:12:51;;;;;;;1.20;0.80;;;;;;;;;;5117722;28;20206;-66
2023/09/23 03:15:22;;;;;;;1.05;0.65;;;;;;;;;;5118252;28;20615;-66
2023/09/23 03:17:53;;;;;;;3.58;0.80;;;;;;;;;;5118099;28;20242;-66
2023/09/23 03:20:25;;;;;;;0.63;0.60;;;;;;;;;;5117960;28;20203;-66
2023/09/23 03:22:54;;;;;;;0.68;0.68;;;;;;;;;;5117833;28;20217;-65
2023/09/23 03:25:22;;;;;;;0.73;0.68;;;;;;;;;;5117703;28;20203;-66
2023/09/23 03:27:50;;;;;;;0.82;0.80;;;;;;;;;;5117802;28;20217;-65
2023/09/23 03:30:18;;;;;;;3.05;0.80;;;;;;;;;;5117456;28;20306;-66
2023/09/23 03:32:47;;;;;;;1.48;0.70;;;;;;;;;;5117415;28;20203;-66
2023/09/23 03:35:20;;;;;;;0.70;0.70;;;;;;;;;;5117705;28;20226;-66
2023/09/23 03:37:50;;;;;;;1.00;0.73;;;;;;;;;;5117687;28;20203;-65
2023/09/23 03:40:24;;;;;;;0.73;0.70;;;;;;;;;;5118206;28;20303;-65
2023/09/23 03:42:52;;;;;;;0.68;0.68;;;;;;;;;;5121477;28;20202;-65
2023/09/23 03:45:20;;;;;;;1.20;0.80;;;;;;;;;;5121668;28;20294;-66
2023/09/23 03:47:48;;;;;;;0.60;0.60;;;;;;;;;;5121499;28;20230;-66
2023/09/23 03:50:16;;;;;;;0.60;0.60;;;;;;;;;;5121178;28;20211;-66
2023/09/23 03:52:44;;;;;;;0.60;0.60;;;;;;;;;;5121448;28;20214;-66
2023/09/23 03:55:14;;;;;;;0.75;0.60;;;;;;;;;;5121349;28;20223;-66
2023/09/23 03:57:42;;;;;;;0.90;0.70;;;;;;;;;;5121383;28;20306;-66
2023/09/23 04:00:16;;;;;;;0.50;0.40;;;;;;;;;;5121428;28;20829;-66
2023/09/23 04:02:47;;;;;;;0.60;0.60;;;;;;;;;;5121396;28;20301;-66
2023/09/23 04:05:15;;;;;;;0.50;0.50;;;;;;;;;;5120991;28;20227;-66
2023/09/23 04:07:43;;;;;;;0.88;0.68;;;;;;;;;;5121223;28;20233;-66
2023/09/23 04:10:11;;;;;;;0.80;0.70;;;;;;;;;;5121149;28;20606;-66
2023/09/23 04:12:43;;;;;;;0.57;0.50;;;;;;;;;;5121041;28;20211;-66
2023/09/23 04:15:11;;;;;;;0.95;0.60;;;;;;;;;;5120932;28;20299;-66
2023/09/23 04:17:39;;;;;;;0.98;0.70;;;;;;;;;;5121016;28;20604;-66
2023/09/23 04:20:10;;;;;;;0.57;0.50;;;;;;;;;;5120578;28;20214;-66
2023/09/23 04:22:37;;;;;;;0.50;0.50;;;;;;;;;;5120786;28;20234;-66
2023/09/23 04:25:06;;;;;;;0.60;0.50;;;;;;;;;;5120932;28;20498;-66
2023/09/23 04:27:35;;;;;;;0.63;0.63;;;;;;;;;;5120991;28;20219;-66
2023/09/23 04:30:08;;;;;;;0.65;0.60;;;;;;;;;;5120756;28;20203;-66
2023/09/23 04:32:36;;;;;;;0.68;0.60;;;;;;;;;;5120992;28;20571;-65
2023/09/23 04:35:04;;;;;;;0.70;0.60;;;;;;;;;;5120540;28;20259;-65
2023/09/23 04:37:36;;;;;;;1.15;0.57;;;;;;;;;;5120422;28;20294;-65
2023/09/23 04:40:05;;;;;;;1.02;0.60;;;;;;;;;;5120867;28;20350;-65
2023/09/23 04:42:33;;;;;;;0.50;0.45;;;;;;;;;;5120165;28;20223;-65
2023/09/23 04:45:01;;;;;;;0.57;0.50;;;;;;;;;;5120519;28;20210;-65
2023/09/23 04:47:30;;;;;;;0.60;0.60;;;;;;;;;;5119871;28;20218;-67
2023/09/23 04:49:58;;;;;;;0.50;0.50;;;;;;;;;;5120593;28;20213;-65
2023/09/23 04:52:27;;;;;;;0.70;0.70;;;;;;;;;;5119961;28;20493;-67
2023/09/23 04:54:55;;;;;;;0.52;0.50;;;;;;;;;;5119892;28;20210;-65
2023/09/23 04:57:23;;;;;;;0.57;0.57;;;;;;;;;;5120098;28;20230;-66
2023/09/23 04:59:52;;;;;;;0.88;0.50;;;;;;;;;;5120068;28;20206;-67
2023/09/23 05:02:19;;;;;;;0.63;0.60;;;;;;;;;;5120046;28;20218;-65
2023/09/23 05:04:53;;;;;;;0.50;0.45;;;;;;;;;;5119949;28;20239;-67
2023/09/23 05:07:20;;;;;;;0.95;0.60;;;;;;;;;;5120452;28;20554;-67
2023/09/23 05:09:49;;;;;;;1.00;0.40;;;;;;;;;;5120051;28;20615;-67
2023/09/23 05:12:17;;;;;;;1.38;0.73;;;;;;;;;;5120064;28;20203;-65
2023/09/23 05:14:44;;;;;;;0.70;0.60;;;;;;;;;;5120044;28;20588;-65
2023/09/23 05:17:15;;;;;;;0.80;0.50;;;;;;;;;;5120070;28;20223;-65
2023/09/23 05:19:43;;;;;;;0.60;0.50;;;;;;;;;;5119672;28;20203;-67
2023/09/23 05:22:12;;;;;;;0.50;0.50;;;;;;;;;;5119649;28;20203;-65
2023/09/23 05:24:41;;;;;;;0.63;0.60;;;;;;;;;;5120259;28;20214;-65
2023/09/23 05:27:09;;;;;;;0.52;0.50;;;;;;;;;;5119779;28;20275;-65
2023/09/23 05:29:37;;;;;;;0.60;0.50;;;;;;;;;;5119028;28;20214;-65
2023/09/23 05:32:05;;;;;;;0.77;0.50;;;;;;;;;;5119450;28;20203;-65
2023/09/23 05:34:32;;;;;;;0.50;0.50;;;;;;;;;;5119254;28;20476;-67
2023/09/23 05:37:00;;;;;;;0.45;0.40;;;;;;;;;;5119134;28;20223;-66
2023/09/23 05:39:29;;;;;;;0.52;0.40;;;;;;;;;;5118365;28;20203;-67
2023/09/23 05:41:57;;;;;;;0.50;0.50;;;;;;;;;;5119045;28;20199;-67
2023/09/23 05:44:24;;;;;;;0.80;0.47;;;;;;;;;;5118938;28;20258;-67
2023/09/23 05:46:52;;;;;;;0.40;0.40;;;;;;;;;;5118995;28;20225;-65
2023/09/23 05:49:20;;;;;;;0.50;0.50;;;;;;;;;;5118666;28;20576;-65
2023/09/23 05:51:52;;;;;;;0.88;0.50;;;;;;;;;;5118363;28;20214;-67
2023/09/23 05:54:20;;;;;;;0.50;0.47;;;;;;;;;;5118556;28;20479;-65
2023/09/23 05:56:49;;;;;;;0.82;0.50;;;;;;;;;;5118551;28;20227;-67
2023/09/23 05:59:16;;;;;;;0.68;0.57;;;;;;;;;;5119211;28;20210;-65
2023/09/23 06:01:44;;;;;;;0.50;0.50;;;;;;;;;;5118897;28;20213;-65
2023/09/23 06:04:11;;;;;;;0.60;0.60;;;;;;;;;;5117516;28;20628;-65
2023/09/23 06:06:39;;;;;;;0.40;0.40;;;;;;;;;;5119013;28;20198;-65
2023/09/23 06:09:07;;;;;;;0.45;0.45;;;;;;;;;;5118612;28;20531;-66
2023/09/23 06:11:35;;;;;;;0.60;0.60;;;;;;;;;;5118914;28;20554;-65
2023/09/23 06:14:04;;;;;;;0.43;0.43;;;;;;;;;;5118193;28;20234;-66
2023/09/23 06:16:31;;;;;;;0.77;0.50;;;;;;;;;;5118072;28;20223;-65
2023/09/23 06:18:59;;;;;;;1.05;0.60;;;;;;;;;;5118135;28;20203;-66
2023/09/23 06:21:27;;;;;;;0.57;0.40;;;;;;;;;;5117920;28;20482;-65
2023/09/23 06:23:54;;;;;;;0.40;0.40;;;;;;;;;;5118214;28;20195;-66
2023/09/23 06:26:22;;;;;;;0.65;0.50;;;;;;;;;;5117873;28;20199;-67
2023/09/23 06:28:50;;;;;;;0.50;0.50;;;;;;;;;;5118168;28;20203;-65
2023/09/23 06:31:19;;;;;;;0.80;0.55;;;;;;;;;;5118168;28;20202;-65
2023/09/23 06:33:47;;;;;;;1.40;0.40;;;;;;;;;;5118091;28;20221;-65
2023/09/23 06:36:14;;;;;;;0.68;0.50;;;;;;;;;;5117392;28;20233;-65
2023/09/23 06:38:42;;;;;;;0.68;0.50;;;;;;;;;;5117619;28;20203;-65
2023/09/23 06:41:09;;;;;;;2.10;0.50;;;;;;;;;;5117143;28;20203;-67
2023/09/23 06:43:37;;;;;;;1.40;0.50;;;;;;;;;;5117306;28;20207;-66
2023/09/23 06:46:05;;;;;;;1.33;0.40;;;;;;;;;;5117135;28;20255;-65
2023/09/23 06:48:34;;;;;;;0.70;0.57;;;;;;;;;;5117673;28;20203;-65
2023/09/23 06:51:02;;;;;;;0.85;0.50;;;;;;;;;;5117783;28;20507;-65
2023/09/23 06:53:31;;;;;;;0.60;0.60;;;;;;;;;;5117671;28;20210;-65
2023/09/23 06:55:59;;;;;;;1.02;0.50;;;;;;;;;;5117068;28;20238;-67
2023/09/23 06:58:26;;;;;;;1.02;0.60;;;;;;;;;;5117190;28;20278;-67
2023/09/23 07:00:55;;;;;;;0.50;0.50;;;;;;;;;;5118002;28;20247;-65
2023/09/23 07:03:23;;;;;;;0.50;0.50;;;;;;;;;;5117422;28;20242;-65
2023/09/23 07:05:52;;;;;;;0.90;0.70;;;;;;;;;;5117574;28;20262;-65
2023/09/23 07:08:19;;;;;;;0.93;0.55;;;;;;;;;;5117025;28;20203;-66
2023/09/23 07:10:47;;;;;;;0.70;0.40;;;;;;;;;;5117277;28;20203;-66
2023/09/23 07:13:15;;;;;;;0.55;0.50;;;;;;;;;;5117205;28;20203;-66
2023/09/23 07:15:43;;;;;;;0.60;0.60;;;;;;;;;;5117860;28;20214;-66
2023/09/23 07:18:10;;;;;;;1.08;0.50;;;;;;;;;;5121538;28;20223;-66
2023/09/23 07:20:38;;;;;;;1.10;0.47;;;;;;;;;;5121208;28;20202;-66
2023/09/23 07:23:07;;;;;;;0.63;0.40;;;;;;;;;;5121463;28;20263;-66
2023/09/23 07:25:39;;;;;;;0.52;0.50;;;;;;;;;;5121287;28;20210;-66
2023/09/23 07:28:08;;;;;;;0.75;0.60;;;;;;;;;;5121069;28;20198;-66
2023/09/23 07:30:36;;;;;;;0.75;0.73;;;;;;;;;;5121128;28;20348;-66
2023/09/23 07:33:03;;;;;;;0.77;0.50;;;;;;;;;;5120906;28;20203;-66
2023/09/23 07:35:32;;;;;;;0.55;0.55;;;;;;;;;;5120907;28;20207;-66
2023/09/23 07:38:00;;;;;;;0.50;0.40;;;;;;;;;;5121061;28;20259;-66
2023/09/23 07:40:29;;;;;;;0.65;0.55;;;;;;;;;;5121389;28;20234;-66
2023/09/23 07:42:57;;;;;;;2.33;0.55;;;;;;;;;;5121019;28;20463;-66
2023/09/23 07:45:25;;;;;;;0.80;0.60;;;;;;;;;;5120401;28;20210;-66
2023/09/23 07:47:53;;;;;;;0.60;0.50;;;;;;;;;;5120251;28;20210;-66
2023/09/23 07:50:20;;;;;;;0.85;0.50;;;;;;;;;;5120630;28;20202;-66
2023/09/23 07:52:48;;;;;;;2.28;0.60;;;;;;;;;;5120712;28;20221;-66
2023/09/23 07:55:16;;;;;;;1.80;0.77;;;;;;;;;;5119821;28;20310;-66
2023/09/23 07:57:45;;;;;;;1.92;0.70;;;;;;;;;;5119818;28;20311;-67
2023/09/23 08:00:13;;;;;;;0.93;0.50;;;;;;;;;;5120399;28;20207;-66
2023/09/23 08:02:40;;;;;;;1.00;0.68;;;;;;;;;;5118889;28;20506;-66
2023/09/23 08:05:08;;;;;;;1.60;0.50;;;;;;;;;;5118596;28;20227;-66
2023/09/23 08:07:36;;;;;;;0.73;0.50;;;;;;;;;;5119945;28;20294;-66
2023/09/23 08:10:05;;;;;;;1.23;0.50;;;;;;;;;;5119327;28;20207;-66
2023/09/23 08:12:35;;;;;;;1.40;0.60;;;;;;;;;;5119715;28;20301;-66
2023/09/23 08:15:08;;;;;;;0.60;0.50;;;;;;;;;;5119211;28;20275;-66
2023/09/23 08:17:35;;;;;;;0.88;0.70;;;;;;;;;;5119715;28;20227;-66
2023/09/23 08:20:14;;;;;;;1.02;0.40;;;;;;;;;;5119260;28;20202;-66
2023/09/23 08:22:41;;;;;;;0.80;0.60;;;;;;;;;;5119059;28;20203;-66
2023/09/23 08:25:09;;;;;;;0.85;0.60;;;;;;;;;;5119877;28;20302;-66
2023/09/23 08:27:37;;;;;;;0.73;0.57;;;;;;;;;;5118958;28;20199;-66
2023/09/23 08:30:07;;;;;;;0.90;0.60;;;;;;;;;;5119370;28;20221;-66
2023/09/23 08:32:36;;;;;;;0.95;0.63;;;;;;;;;;5119580;28;20203;-66
2023/09/23 08:35:05;;;;;;;1.45;0.60;;;;;;;;;;5119142;28;20202;-66
2023/09/23 08:37:32;;;;;;;0.70;0.60;;;;;;;;;;5119805;28;20325;-66
2023/09/23 08:40:00;;;;;;;1.23;0.50;;;;;;;;;;5119176;28;20203;-66
2023/09/23 08:42:28;;;;;;;0.77;0.60;;;;;;;;;;5118771;28;20206;-66
2023/09/23 08:44:56;;;;;;;1.30;0.60;;;;;;;;;;5118652;28;20210;-66
2023/09/23 08:47:25;;;;;;;0.80;0.80;;;;;;;;;;5118455;28;20199;-66
2023/09/23 08:49:54;;;;;;;0.50;0.50;;;;;;;;;;5117812;28;20230;-66
2023/09/23 08:52:24;;;;;;;0.80;0.70;;;;;;;;;;5117570;28;20603;-66
2023/09/23 08:54:52;;;;;;;0.90;0.60;;;;;;;;;;5118282;28;20233;-66
2023/09/23 08:57:20;;;;;;;0.95;0.70;;;;;;;;;;5118938;28;20222;-66
2023/09/23 08:59:47;;;;;;;1.05;0.80;;;;;;;;;;5118352;28;20199;-66
2023/09/23 09:02:17;;;;;;;1.02;0.60;;;;;;;;;;5117759;28;20207;-66
2023/09/23 09:04:46;;;;;;;1.98;0.80;;;;;;;;;;5117579;28;20249;-66
2023/09/23 09:07:14;;;;;;;1.73;0.90;;;;;;;;;;5118368;28;20199;-66
2023/09/23 09:09:42;;;;;;;3.78;0.90;;;;;;;;;;5119306;28;20238;-66
2023/09/23 09:12:12;;;;;;;4.25;1.00;;;;;;;;;;5118193;28;20214;-66
2023/09/23 09:14:40;;;;;;;4.90;1.10;;;;;;;;;;5118111;28;20206;-66
2023/09/23 09:17:12;;;;;;;3.15;1.00;;;;;;;;;;5117774;28;20215;-66
2023/09/23 09:19:40;;;;;;;2.00;0.93;;;;;;;;;;5116703;28;20202;-66
2023/09/23 09:22:10;;;;;;;2.65;0.88;;;;;;;;;;5117375;28;20233;-66
2023/09/23 09:24:37;;;;;;;3.28;1.02;;;;;;;;;;5118020;28;20202;-66
2023/09/23 09:27:09;;;;;;;5.45;1.30;;;;;;;;;;5117276;28;20199;-66
2023/09/23 09:29:37;;;;;;;2.58;0.80;;;;;;;;;;5117686;28;20210;-66
2023/09/23 09:32:05;;;;;;;3.13;1.25;;;;;;;;;;5118306;28;20214;-66
2023/09/23 09:34:34;;;;;;;1.83;0.68;;;;;;;;;;5117253;28;20210;-67
2023/09/23 09:37:03;;;;;;;0.68;0.60;;;;;;;;;;5117534;28;20234;-66
2023/09/23 09:39:33;;;;;;;2.13;1.00;;;;;;;;;;5116664;28;20211;-66
2023/09/23 09:42:03;;;;;;;2.83;0.80;;;;;;;;;;5117229;28;20211;-65
2023/09/23 09:44:33;;;;;;;2.80;0.90;;;;;;;;;;5117823;28;20557;-65
2023/09/23 09:47:02;;;;;;;5.65;0.95;;;;;;;;;;5116337;28;20207;-72
2023/09/23 09:49:30;;;;;;;17.92;2.05;;;;;;;;;;5113748;28;20203;-65
2023/09/23 09:51:57;;;;;;;5.25;1.10;;;;;;;;;;5112262;28;20214;-63
2023/09/23 09:54:26;;;;;;;6.18;1.27;;;;;;;;;;5114214;28;20234;-63
2023/09/23 09:56:56;;;;;;;2.15;0.80;;;;;;;;;;5113187;28;20251;-63
2023/09/23 09:59:25;;;;;;;1.73;0.70;;;;;;;;;;5111356;28;20275;-63
2023/09/23 10:01:53;;;;;;;3.40;1.10;;;;;;;;;;5114220;28;20203;-63
2023/09/23 10:04:21;;;;;;;3.15;0.88;;;;;;;;;;5096840;28;20236;-63
2023/09/23 10:06:54;;;;;;;5.97;1.30;;;;;;;;;;5096177;28;20204;-63
2023/09/23 10:09:27;;;;;;;1.52;0.85;;;;;;;;;;5096411;28;20211;-63
2023/09/23 10:11:59;;;;;;;1.73;0.80;;;;;;;;;;5114007;28;20579;-63
2023/09/23 10:14:27;;;;;;;1.88;1.10;;;;;;;;;;5116480;28;20214;-63
2023/09/23 10:17:01;;;;;;;2.40;0.70;;;;;;;;;;5115783;28;20647;-63
2023/09/23 10:19:32;;;;;;;1.17;0.80;;;;;;;;;;5116226;28;20464;-63
2023/09/23 10:22:13;;;;;;;1.50;0.80;;;;;;;;;;5116327;28;20211;-63
2023/09/23 10:24:40;;;;;;;1.38;0.93;;;;;;;;;;5115527;28;20246;-63
2023/09/23 10:27:11;;;;;;;1.08;0.70;;;;;;;;;;5116110;28;20234;-63
2023/09/23 10:29:46;;;;;;;0.68;0.60;;;;;;;;;;5111971;28;20243;-63
2023/09/23 10:32:15;;;;;;;1.10;0.70;;;;;;;;;;5113795;28;20232;-63
2023/09/23 10:34:49;;;;;;;0.80;0.60;;;;;;;;;;5116186;28;20246;-63
2023/09/23 10:37:30;;;;;;;1.95;0.88;;;;;;;;;;5116364;28;20226;-63
2023/09/23 10:40:09;;;;;;;0.80;0.70;;;;;;;;;;5116262;28;20572;-63
2023/09/23 10:42:38;;;;;;;3.03;0.90;;;;;;;;;;5116640;28;20213;-63
2023/09/23 10:45:06;;;;;;;1.08;0.80;;;;;;;;;;5117249;28;20552;-63
2023/09/23 10:47:35;;;;;;;1.75;0.80;;;;;;;;;;5116922;28;20533;-63
2023/09/23 10:50:04;;;;;;;2.03;0.90;;;;;;;;;;5115665;28;20214;-63
2023/09/23 10:52:32;;;;;;;1.10;0.88;;;;;;;;;;5115571;28;20203;-63
2023/09/23 10:55:00;;;;;;;2.03;0.75;;;;;;;;;;5116424;28;20210;-63
2023/09/23 10:57:28;;;;;;;1.42;0.82;;;;;;;;;;5115653;28;20662;-63
2023/09/23 10:59:57;;;;;;;1.08;0.77;;;;;;;;;;5115538;28;20203;-63
2023/09/23 11:02:25;;;;;;;0.93;0.73;;;;;;;;;;5115146;28;20202;-63
2023/09/23 11:04:55;;;;;;;2.90;0.90;;;;;;;;;;5114040;28;20520;-63
2023/09/23 11:07:22;;;;;;;0.75;0.63;;;;;;;;;;5115529;28;20209;-63
2023/09/23 11:09:50;;;;;;;1.25;0.80;;;;;;;;;;5114415;28;20211;-63
2023/09/23 11:12:18;;;;;;;1.42;0.70;;;;;;;;;;5115027;28;20209;-63
2023/09/23 11:14:48;;;;;;;1.67;1.10;;;;;;;;;;5114903;28;20203;-63
2023/09/23 11:17:25;;;;;;;1.35;0.80;;;;;;;;;;5115603;28;20305;-63
2023/09/23 11:19:56;;;;;;;1.65;0.93;;;;;;;;;;5114765;28;20286;-62
2023/09/23 11:22:24;;;;;;;2.45;1.10;;;;;;;;;;5115608;28;20214;-63
2023/09/23 11:24:52;;;;;;;5.78;1.60;;;;;;;;;;5115460;28;20198;-63
2023/09/23 11:27:19;;;;;;;2.50;1.33;;;;;;;;;;5115521;28;20201;-63
2023/09/23 11:29:48;;;;;;;3.47;1.20;;;;;;;;;;5115256;28;20211;-63
2023/09/23 11:32:15;;;;;;;3.67;1.30;;;;;;;;;;5115184;28;20195;-63
2023/09/23 11:34:44;;;;;;;4.85;1.35;;;;;;;;;;5115154;28;20213;-63
2023/09/23 11:37:12;;;;;;;2.25;1.20;;;;;;;;;;5101106;28;20227;-63
2023/09/23 11:39:41;;;;;;;7.63;1.60;;;;;;;;;;5094518;28;20204;-63
2023/09/23 11:42:08;;;;;;;4.60;1.70;;;;;;;;;;5095476;28;20572;-63
2023/09/23 11:44:36;;;;;;;3.22;1.40;;;;;;;;;;5086716;28;20222;-63
2023/09/23 11:47:03;;;;;;;2.22;1.20;;;;;;;;;;5094936;28;20211;-63
2023/09/23 11:49:31;;;;;;;4.53;1.65;;;;;;;;;;5094828;28;20215;-63
2023/09/23 11:52:00;;;;;;;4.10;1.40;;;;;;;;;;5087693;28;20227;-63
2023/09/23 11:54:28;;;;;;;2.20;1.30;;;;;;;;;;5093685;28;20200;-63
2023/09/23 11:56:56;;;;;;;2.80;1.33;;;;;;;;;;5095507;28;20204;-63
2023/09/23 11:59:23;;;;;;;4.80;1.40;;;;;;;;;;5094923;28;20241;-63
2023/09/23 12:01:51;;;;;;;1.58;0.90;;;;;;;;;;5095453;28;20535;-63
2023/09/23 12:04:19;;;;;;;2.67;1.13;;;;;;;;;;5097967;28;20616;-63
2023/09/23 12:06:46;;;;;;;2.75;1.02;;;;;;;;;;5098754;28;20218;-63
2023/09/23 12:09:16;;;;;;;1.52;0.77;;;;;;;;;;5097624;28;20199;-63
2023/09/23 12:11:43;;;;;;;1.55;1.05;;;;;;;;;;5097940;28;20204;-63
2023/09/23 12:14:12;;;;;;;2.05;1.17;;;;;;;;;;5098568;28;20196;-63
2023/09/23 12:16:39;;;;;;;1.45;0.80;;;;;;;;;;5097966;28;20199;-63
2023/09/23 12:19:07;;;;;;;1.30;0.90;;;;;;;;;;5097703;28;20234;-63
2023/09/23 12:21:34;;;;;;;1.63;0.88;;;;;;;;;;5097665;28;20203;-63
2023/09/23 12:24:03;;;;;;;1.10;0.80;;;;;;;;;;5097196;28;20222;-63
2023/09/23 12:26:32;;;;;;;1.20;1.00;;;;;;;;;;5096942;28;20318;-63
2023/09/23 12:29:00;;;;;;;1.30;0.98;;;;;;;;;;5097095;28;20206;-63
2023/09/23 12:31:27;;;;;;;1.13;0.80;;;;;;;;;;5097699;28;20211;-63
2023/09/23 12:33:55;;;;;;;0.85;0.75;;;;;;;;;;5097204;28;20211;-63
2023/09/23 12:36:23;;;;;;;1.20;0.82;;;;;;;;;;5097631;28;20211;-63
2023/09/23 12:38:50;;;;;;;1.00;0.70;;;;;;;;;;5097543;28;20289;-63
2023/09/23 12:41:18;;;;;;;1.40;0.80;;;;;;;;;;5097492;28;20204;-63
2023/09/23 12:43:47;;;;;;;1.98;0.70;;;;;;;;;;5096838;28;20208;-63
2023/09/23 12:46:15;;;;;;;1.05;0.80;;;;;;;;;;5097025;28;20204;-63
2023/09/23 12:48:43;;;;;;;2.00;1.00;;;;;;;;;;5097178;28;20227;-63
2023/09/23 12:51:12;;;;;;;1.35;0.90;;;;;;;;;;5098351;28;20489;-63
2023/09/23 12:53:40;;;;;;;1.95;0.98;;;;;;;;;;5097349;28;20628;-63
2023/09/23 12:56:11;;;;;;;0.85;0.77;;;;;;;;;;5097792;28;20246;-63
2023/09/23 12:58:39;;;;;;;1.35;0.70;;;;;;;;;;5090133;28;20223;-63
2023/09/23 13:01:08;;;;;;;2.15;0.90;;;;;;;;;;5096790;28;20214;-64
2023/09/23 13:03:36;;;;;;;1.60;1.05;;;;;;;;;;5096857;28;20207;-62
2023/09/23 13:06:03;;;;;;;1.15;0.95;;;;;;;;;;5096131;28;20223;-63
2023/09/23 13:08:31;;;;;;;1.83;1.00;;;;;;;;;;5097157;28;20207;-63
2023/09/23 13:10:58;;;;;;;1.40;0.82;;;;;;;;;;5097377;28;20203;-63
2023/09/23 13:13:26;;;;;;;1.13;0.70;;;;;;;;;;5096782;28;20207;-63
2023/09/23 13:15:53;;;;;;;1.85;1.00;;;;;;;;;;5096538;28;20219;-63
2023/09/23 13:18:22;;;;;;;1.02;0.82;;;;;;;;;;5095823;28;20230;-63
2023/09/23 13:20:50;;;;;;;0.63;0.63;;;;;;;;;;5096326;28;20203;-63
2023/09/23 13:23:18;;;;;;;1.05;0.85;;;;;;;;;;5096100;28;20199;-63
2023/09/23 13:25:46;;;;;;;1.75;0.93;;;;;;;;;;5095880;28;20203;-63
2023/09/23 13:28:13;;;;;;;1.63;1.05;;;;;;;;;;5095668;28;20196;-63
2023/09/23 13:30:42;;;;;;;1.40;0.98;;;;;;;;;;5094915;28;20211;-63
2023/09/23 13:33:09;;;;;;;1.10;0.80;;;;;;;;;;5095760;28;20203;-63
2023/09/23 13:35:39;;;;;;;1.23;0.80;;;;;;;;;;5095972;28;20204;-63
2023/09/23 13:38:07;;;;;;;1.02;0.80;;;;;;;;;;5096150;28;20207;-63
2023/09/23 13:40:35;;;;;;;1.58;0.70;;;;;;;;;;5091802;28;20807;-63
2023/09/23 13:43:03;;;;;;;1.10;0.82;;;;;;;;;;5090428;28;20226;-63
2023/09/23 13:45:30;;;;;;;0.82;0.60;;;;;;;;;;5095304;28;20268;-63
2023/09/23 13:47:58;;;;;;;1.15;0.80;;;;;;;;;;5095391;28;20207;-63
2023/09/23 13:50:26;;;;;;;1.25;0.90;;;;;;;;;;5096270;28;20199;-63
2023/09/23 13:52:55;;;;;;;1.00;0.70;;;;;;;;;;5095555;28;20230;-63
2023/09/23 13:55:22;;;;;;;1.02;0.93;;;;;;;;;;5095844;28;20223;-63
2023/09/23 13:57:50;;;;;;;1.55;0.70;;;;;;;;;;5095169;28;20218;-63
2023/09/23 14:00:18;;;;;;;1.30;0.80;;;;;;;;;;5095516;28;20307;-63
2023/09/23 14:02:45;;;;;;;1.00;0.70;;;;;;;;;;5095283;28;20596;-63
2023/09/23 14:05:13;;;;;;;0.88;0.80;;;;;;;;;;5095828;28;20230;-63
2023/09/23 14:07:41;;;;;;;0.80;0.77;;;;;;;;;;5096060;28;20207;-63
2023/09/23 14:10:10;;;;;;;0.77;0.73;;;;;;;;;;5095547;28;20230;-63
2023/09/23 14:12:38;;;;;;;1.38;0.80;;;;;;;;;;5094411;28;20272;-63
2023/09/23 14:15:06;;;;;;;0.60;0.60;;;;;;;;;;5096153;28;20572;-63
2023/09/23 14:17:33;;;;;;;0.70;0.70;;;;;;;;;;5095744;28;20203;-63
2023/09/23 14:20:03;;;;;;;0.90;0.70;;;;;;;;;;5095287;28;20322;-63
2023/09/23 14:22:31;;;;;;;0.80;0.80;;;;;;;;;;5095223;28;20207;-63
2023/09/23 14:24:58;;;;;;;0.90;0.60;;;;;;;;;;5094409;28;20218;-63
2023/09/23 14:27:27;;;;;;;1.75;0.90;;;;;;;;;;5095268;28;20218;-63
2023/09/23 14:29:55;;;;;;;1.00;0.60;;;;;;;;;;5094611;28;20199;-63
2023/09/23 14:32:23;;;;;;;0.90;0.68;;;;;;;;;;5094629;28;20211;-63
2023/09/23 14:34:51;;;;;;;0.65;0.60;;;;;;;;;;5094326;28;20647;-63
2023/09/23 14:37:18;;;;;;;0.70;0.70;;;;;;;;;;5095455;28;20200;-63
2023/09/23 14:39:46;;;;;;;0.90;0.75;;;;;;;;;;5094840;28;20223;-63
2023/09/23 14:42:14;;;;;;;1.02;0.70;;;;;;;;;;5094633;28;20210;-63
2023/09/23 14:44:43;;;;;;;0.90;0.80;;;;;;;;;;5094614;28;20265;-63
2023/09/23 14:47:11;;;;;;;1.08;0.80;;;;;;;;;;5094107;28;20301;-63
2023/09/23 14:49:38;;;;;;;1.10;0.70;;;;;;;;;;5094189;28;20196;-63
2023/09/23 14:52:06;;;;;;;1.13;0.70;;;;;;;;;;5093987;28;20208;-63